createdAt,value
2023-03-21T00:00:44.112Z,89.89
2023-03-21T00:01:44.099Z,89.69
2023-03-21T00:02:44.162Z,90.03
2023-03-21T00:03:44.085Z,89.83
2023-03-21T00:04:51.345Z,90.03
2023-03-21T00:05:44.106Z,90.55
2023-03-21T00:06:44.087Z,89.52
2023-03-21T00:07:44.031Z,89.72
2023-03-21T00:08:44.021Z,89.83
2023-03-21T00:09:44.037Z,88.49
2023-03-21T00:10:44.120Z,89.31
2023-03-21T00:11:43.984Z,90.03
2023-03-21T00:12:43.988Z,90.14
2023-03-21T00:13:43.963Z,90.14
2023-03-21T00:14:43.957Z,90.24
2023-03-21T00:15:57.746Z,90.03
2023-03-21T00:16:43.983Z,89.11
2023-03-21T00:17:43.916Z,88.59
2023-03-21T00:18:43.901Z,89.97
2023-03-21T00:19:43.914Z,89.66
2023-03-21T00:20:43.880Z,88.84
2023-03-21T00:21:59.602Z,88.84
2023-03-21T00:22:43.870Z,89.15
2023-03-21T00:23:43.862Z,89.36
2023-03-21T00:24:43.848Z,88.84
2023-03-21T00:25:43.832Z,88.43
2023-03-21T00:26:43.812Z,88.12
2023-03-21T00:28:01.043Z,88.23
2023-03-21T00:28:43.817Z,88.29
2023-03-21T00:29:43.797Z,87.67
2023-03-21T00:30:43.778Z,88.59
2023-03-21T00:31:43.758Z,89.52
2023-03-21T00:32:53.308Z,89.62
2023-03-21T00:33:43.759Z,89.62
2023-03-21T00:34:57.091Z,89.31
2023-03-21T00:35:58.285Z,89.42
2023-03-21T00:36:43.775Z,90.24
2023-03-21T00:37:43.698Z,89.62
2023-03-21T00:38:43.692Z,88.49
2023-03-21T00:39:43.781Z,88.90
2023-03-21T00:40:48.797Z,89.31
2023-03-21T00:41:43.753Z,89.42
2023-03-21T00:42:43.636Z,89.52
2023-03-21T00:43:43.642Z,89.93
2023-03-21T00:44:43.643Z,89.72
2023-03-21T00:45:43.606Z,89.52
2023-03-21T00:46:54.500Z,89.69
2023-03-21T00:47:43.764Z,89.27
2023-03-21T00:48:43.584Z,88.56
2023-03-21T00:49:43.586Z,88.66
2023-03-21T00:50:43.552Z,88.86
2023-03-21T00:51:43.559Z,88.04
2023-03-21T00:52:43.535Z,87.43
2023-03-21T00:53:43.525Z,88.66
2023-03-21T00:54:43.513Z,88.76
2023-03-21T00:55:43.496Z,87.63
2023-03-21T00:56:43.479Z,87.84
2023-03-21T00:57:45.352Z,89.37
2023-03-21T00:58:43.484Z,89.48
2023-03-21T00:59:43.472Z,89.37
2023-03-21T01:00:43.469Z,90.61
2023-03-21T01:01:43.509Z,91.53
2023-03-21T01:02:45.124Z,91.22
2023-03-21T01:03:43.430Z,90.55
2023-03-21T01:04:43.409Z,89.72
2023-03-21T01:05:43.394Z,90.24
2023-03-21T01:06:43.412Z,90.24
2023-03-21T01:07:43.367Z,90.65
2023-03-21T01:08:53.055Z,89.72
2023-03-21T01:09:43.362Z,91.57
2023-03-21T01:10:43.339Z,90.95
2023-03-21T01:11:43.318Z,89.62
2023-03-21T01:12:43.302Z,89.52
2023-03-21T01:13:53.033Z,90.24
2023-03-21T01:14:43.304Z,89.93
2023-03-21T01:15:43.271Z,89.52
2023-03-21T01:16:43.283Z,89.62
2023-03-21T01:17:43.250Z,90.03
2023-03-21T01:18:43.250Z,90.24
2023-03-21T01:19:51.559Z,89.93
2023-03-21T01:20:43.223Z,89.83
2023-03-21T01:21:43.204Z,90.24
2023-03-21T01:22:43.235Z,90.55
2023-03-21T01:23:43.182Z,90.95
2023-03-21T01:24:53.152Z,91.06
2023-03-21T01:25:43.174Z,90.75
2023-03-21T01:26:43.192Z,91.27
2023-03-21T01:27:43.176Z,91.37
2023-03-21T01:28:43.121Z,90.24
2023-03-21T01:29:43.146Z,89.21
2023-03-21T01:30:43.108Z,88.90
2023-03-21T01:31:43.143Z,88.39
2023-03-21T01:32:43.075Z,88.29
2023-03-21T01:33:43.079Z,88.49
2023-03-21T01:34:43.071Z,89.62
2023-03-21T01:35:50.497Z,90.20
2023-03-21T01:36:43.073Z,90.50
2023-03-21T01:37:43.026Z,90.75
2023-03-21T01:38:43.014Z,90.85
2023-03-21T01:39:43.022Z,90.34
2023-03-21T01:40:42.997Z,90.44
2023-03-21T01:41:44.530Z,90.55
2023-03-21T01:42:42.960Z,90.55
2023-03-21T01:43:42.971Z,90.75
2023-03-21T01:44:42.961Z,90.95
2023-03-21T01:45:42.980Z,90.95
2023-03-21T01:47:13.063Z,91.27
2023-03-21T01:47:42.968Z,91.47
2023-03-21T01:48:42.922Z,91.16
2023-03-21T01:49:42.914Z,90.95
2023-03-21T01:50:42.872Z,90.24
2023-03-21T01:51:42.874Z,90.03
2023-03-21T01:52:42.857Z,90.03
2023-03-21T01:53:42.843Z,90.24
2023-03-21T01:54:42.869Z,89.31
2023-03-21T01:55:42.828Z,89.11
2023-03-21T01:56:42.814Z,88.59
2023-03-21T01:57:52.187Z,88.59
2023-03-21T01:58:42.808Z,88.59
2023-03-21T01:59:42.790Z,88.49
2023-03-21T02:00:42.791Z,88.59
2023-03-21T02:01:42.759Z,88.56
2023-03-21T02:02:42.758Z,88.66
2023-03-21T02:03:42.758Z,89.07
2023-03-21T02:04:42.742Z,89.37
2023-03-21T02:05:42.723Z,89.69
2023-03-21T02:06:42.712Z,90.61
2023-03-21T02:07:42.695Z,91.16
2023-03-21T02:08:42.675Z,91.27
2023-03-21T02:09:42.684Z,91.67
2023-03-21T02:10:42.667Z,91.57
2023-03-21T02:11:42.672Z,91.57
2023-03-21T02:12:42.640Z,91.27
2023-03-21T02:13:42.637Z,90.95
2023-03-21T02:14:42.647Z,90.75
2023-03-21T02:15:42.599Z,90.55
2023-03-21T02:16:42.652Z,90.65
2023-03-21T02:17:42.581Z,90.24
2023-03-21T02:18:42.572Z,90.24
2023-03-21T02:19:52.707Z,89.93
2023-03-21T02:20:42.549Z,89.42
2023-03-21T02:21:42.535Z,89.11
2023-03-21T02:22:42.517Z,89.11
2023-03-21T02:23:42.528Z,89.62
2023-03-21T02:24:46.289Z,89.62
2023-03-21T02:25:42.513Z,89.52
2023-03-21T02:26:45.015Z,89.62
2023-03-21T02:27:42.469Z,89.83
2023-03-21T02:28:42.507Z,89.72
2023-03-21T02:29:42.458Z,89.62
2023-03-21T02:30:51.242Z,89.21
2023-03-21T02:31:42.496Z,89.01
2023-03-21T02:32:42.414Z,89.52
2023-03-21T02:33:42.419Z,90.24
2023-03-21T02:34:42.410Z,90.75
2023-03-21T02:35:51.865Z,90.65
2023-03-21T02:36:42.431Z,90.38
2023-03-21T02:37:44.641Z,90.38
2023-03-21T02:38:42.342Z,90.38
2023-03-21T02:39:42.355Z,90.59
2023-03-21T02:40:42.324Z,90.59
2023-03-21T02:41:42.318Z,90.89
2023-03-21T02:42:44.959Z,91.10
2023-03-21T02:43:42.314Z,90.80
2023-03-21T02:44:42.293Z,90.65
2023-03-21T02:45:42.300Z,90.55
2023-03-21T02:46:48.892Z,90.44
2023-03-21T02:47:42.325Z,90.03
2023-03-21T02:48:50.714Z,89.93
2023-03-21T02:49:42.245Z,89.56
2023-03-21T02:50:42.208Z,89.72
2023-03-21T02:51:42.204Z,89.56
2023-03-21T02:52:42.204Z,89.36
2023-03-21T02:53:42.186Z,89.46
2023-03-21T02:54:48.275Z,89.76
2023-03-21T02:55:42.169Z,90.28
2023-03-21T02:56:42.153Z,90.80
2023-03-21T02:57:43.753Z,90.59
2023-03-21T02:58:42.144Z,90.48
2023-03-21T02:59:53.156Z,90.69
2023-03-21T03:00:42.126Z,90.69
2023-03-21T03:01:42.138Z,91.00
2023-03-21T03:02:42.085Z,91.10
2023-03-21T03:03:42.075Z,90.89
2023-03-21T03:04:42.148Z,90.69
2023-03-21T03:05:42.067Z,90.53
2023-03-21T03:06:42.055Z,90.22
2023-03-21T03:07:42.040Z,90.22
2023-03-21T03:08:53.055Z,90.53
2023-03-21T03:09:42.046Z,90.78
2023-03-21T03:10:41.992Z,90.53
2023-03-21T03:11:41.992Z,90.57
2023-03-21T03:12:41.980Z,91.08
2023-03-21T03:13:41.975Z,91.49
2023-03-21T03:14:56.525Z,91.60
2023-03-21T03:15:41.988Z,91.49
2023-03-21T03:16:41.939Z,91.39
2023-03-21T03:17:41.923Z,91.49
2023-03-21T03:18:41.918Z,91.60
2023-03-21T03:19:49.975Z,91.80
2023-03-21T03:20:41.887Z,92.42
2023-03-21T03:21:41.883Z,92.63
2023-03-21T03:22:41.864Z,92.73
2023-03-21T03:23:41.855Z,92.63
2023-03-21T03:24:41.878Z,92.63
2023-03-21T03:25:43.458Z,92.63
2023-03-21T03:26:41.822Z,92.63
2023-03-21T03:27:41.831Z,92.11
2023-03-21T03:28:41.802Z,92.01
2023-03-21T03:29:41.805Z,92.21
2023-03-21T03:30:51.017Z,92.42
2023-03-21T03:31:41.827Z,92.01
2023-03-21T03:32:41.774Z,90.98
2023-03-21T03:33:41.755Z,90.67
2023-03-21T03:34:41.763Z,90.81
2023-03-21T03:35:41.777Z,90.92
2023-03-21T03:36:41.716Z,90.92
2023-03-21T03:37:41.722Z,91.23
2023-03-21T03:38:41.692Z,91.53
2023-03-21T03:39:41.696Z,92.16
2023-03-21T03:40:41.906Z,92.25
2023-03-21T03:42:04.182Z,92.36
2023-03-21T03:42:41.656Z,92.57
2023-03-21T03:43:41.648Z,92.87
2023-03-21T03:44:41.644Z,93.29
2023-03-21T03:45:41.606Z,93.55
2023-03-21T03:46:41.658Z,93.44
2023-03-21T03:47:54.230Z,93.04
2023-03-21T03:48:41.641Z,92.83
2023-03-21T03:49:41.571Z,92.73
2023-03-21T03:50:41.564Z,92.52
2023-03-21T03:51:41.540Z,92.42
2023-03-21T03:52:53.479Z,92.01
2023-03-21T03:53:41.530Z,91.70
2023-03-21T03:54:41.522Z,91.39
2023-03-21T03:55:41.493Z,91.08
2023-03-21T03:56:41.485Z,91.33
2023-03-21T03:57:41.518Z,91.53
2023-03-21T03:58:45.761Z,91.64
2023-03-21T03:59:41.483Z,91.78
2023-03-21T04:00:41.475Z,91.78
2023-03-21T04:01:41.447Z,91.78
2023-03-21T04:02:41.452Z,91.99
2023-03-21T04:03:48.899Z,92.30
2023-03-21T04:04:41.482Z,92.30
2023-03-21T04:05:41.391Z,92.40
2023-03-21T04:06:41.436Z,92.34
2023-03-21T04:07:41.418Z,92.44
2023-03-21T04:08:41.362Z,92.03
2023-03-21T04:09:44.914Z,91.93
2023-03-21T04:10:41.373Z,92.03
2023-03-21T04:11:41.350Z,92.14
2023-03-21T04:12:41.316Z,92.34
2023-03-21T04:13:41.309Z,92.55
2023-03-21T04:14:45.587Z,92.76
2023-03-21T04:15:41.290Z,93.16
2023-03-21T04:16:41.320Z,92.76
2023-03-21T04:17:41.275Z,92.65
2023-03-21T04:18:41.252Z,92.76
2023-03-21T04:19:41.260Z,92.55
2023-03-21T04:20:41.233Z,92.55
2023-03-21T04:21:41.220Z,92.76
2023-03-21T04:22:41.246Z,93.02
2023-03-21T04:23:41.205Z,93.33
2023-03-21T04:24:41.197Z,93.43
2023-03-21T04:25:53.973Z,92.92
2023-03-21T04:26:41.169Z,92.71
2023-03-21T04:27:41.148Z,93.02
2023-03-21T04:28:41.150Z,93.33
2023-03-21T04:29:41.140Z,93.43
2023-03-21T04:30:41.389Z,93.43
2023-03-21T04:31:41.193Z,93.37
2023-03-21T04:32:41.111Z,93.23
2023-03-21T04:33:41.101Z,93.23
2023-03-21T04:34:41.101Z,93.33
2023-03-21T04:35:41.084Z,93.84
2023-03-21T04:36:41.053Z,93.95
2023-03-21T04:37:41.053Z,94.15
2023-03-21T04:38:41.028Z,94.05
2023-03-21T04:39:41.028Z,93.74
2023-03-21T04:40:41.027Z,93.54
2023-03-21T04:41:41.024Z,93.54
2023-03-21T04:42:40.988Z,93.43
2023-03-21T04:43:40.973Z,93.43
2023-03-21T04:44:40.977Z,93.23
2023-03-21T04:45:41.036Z,93.43
2023-03-21T04:46:40.985Z,93.54
2023-03-21T04:47:40.979Z,93.64
2023-03-21T04:48:40.935Z,93.54
2023-03-21T04:49:40.955Z,93.95
2023-03-21T04:50:40.940Z,94.05
2023-03-21T04:51:40.889Z,93.95
2023-03-21T04:52:40.873Z,93.74
2023-03-21T04:53:40.809Z,93.64
2023-03-21T04:54:40.866Z,93.54
2023-03-21T04:55:40.837Z,93.02
2023-03-21T04:56:40.785Z,92.71
2023-03-21T04:57:40.794Z,92.50
2023-03-21T04:58:40.822Z,92.40
2023-03-21T04:59:40.815Z,92.20
2023-03-21T05:00:40.748Z,92.30
2023-03-21T05:01:40.731Z,92.30
2023-03-21T05:02:40.764Z,92.20
2023-03-21T05:03:40.784Z,92.40
2023-03-21T05:04:40.710Z,92.50
2023-03-21T05:05:40.674Z,92.61
2023-03-21T05:06:40.674Z,92.50
2023-03-21T05:07:40.671Z,92.40
2023-03-21T05:08:40.667Z,92.40
2023-03-21T05:09:40.643Z,92.40
2023-03-21T05:10:40.630Z,92.10
2023-03-21T05:11:40.632Z,92.20
2023-03-21T05:12:40.608Z,92.50
2023-03-21T05:13:40.588Z,92.82
2023-03-21T05:14:40.590Z,93.12
2023-03-21T05:15:40.564Z,93.02
2023-03-21T05:16:40.582Z,92.61
2023-03-21T05:17:40.550Z,92.65
2023-03-21T05:18:40.534Z,92.76
2023-03-21T05:19:40.699Z,92.96
2023-03-21T05:20:40.514Z,92.96
2023-03-21T05:21:40.545Z,93.06
2023-03-21T05:22:40.674Z,93.06
2023-03-21T05:23:40.490Z,93.16
2023-03-21T05:24:40.486Z,93.37
2023-03-21T05:25:40.768Z,93.27
2023-03-21T05:26:40.494Z,93.48
2023-03-21T05:27:40.432Z,93.58
2023-03-21T05:28:40.425Z,93.58
2023-03-21T05:29:40.428Z,93.68
2023-03-21T05:30:40.452Z,93.99
2023-03-21T05:31:40.390Z,94.20
2023-03-21T05:32:40.414Z,94.09
2023-03-21T05:33:40.372Z,93.68
2023-03-21T05:34:40.385Z,93.43
2023-03-21T05:35:40.737Z,93.54
2023-03-21T05:36:40.378Z,93.74
2023-03-21T05:37:40.339Z,93.84
2023-03-21T05:38:40.321Z,93.95
2023-03-21T05:39:40.318Z,93.70
2023-03-21T05:40:40.315Z,93.59
2023-03-21T05:41:40.294Z,93.33
2023-03-21T05:42:40.283Z,93.59
2023-03-21T05:43:40.285Z,93.80
2023-03-21T05:44:40.294Z,93.80
2023-03-21T05:45:40.252Z,94.01
2023-03-21T05:46:40.239Z,94.31
2023-03-21T05:47:40.297Z,94.21
2023-03-21T05:48:40.210Z,94.01
2023-03-21T05:49:40.207Z,94.01
2023-03-21T05:50:40.192Z,93.49
2023-03-21T05:51:40.178Z,93.18
2023-03-21T05:52:40.169Z,93.29
2023-03-21T05:53:40.161Z,93.29
2023-03-21T05:54:40.170Z,94.01
2023-03-21T05:55:40.372Z,93.90
2023-03-21T05:56:40.138Z,93.76
2023-03-21T05:57:40.113Z,93.44
2023-03-21T05:58:40.107Z,93.55
2023-03-21T05:59:40.117Z,93.44
2023-03-21T06:00:40.080Z,93.14
2023-03-21T06:01:40.066Z,92.11
2023-03-21T06:02:40.158Z,92.11
2023-03-21T06:03:40.053Z,92.01
2023-03-21T06:04:40.054Z,91.66
2023-03-21T06:05:40.350Z,91.55
2023-03-21T06:06:40.018Z,91.14
2023-03-21T06:07:40.024Z,90.63
2023-03-21T06:08:40.016Z,90.32
2023-03-21T06:09:40.001Z,90.32
2023-03-21T06:10:40.023Z,90.12
2023-03-21T06:11:39.960Z,90.80
2023-03-21T06:12:39.954Z,91.10
2023-03-21T06:13:39.943Z,90.38
2023-03-21T06:14:39.964Z,90.69
2023-03-21T06:15:40.168Z,90.89
2023-03-21T06:16:39.923Z,90.89
2023-03-21T06:17:39.897Z,90.28
2023-03-21T06:18:39.889Z,90.48
2023-03-21T06:19:39.911Z,90.69
2023-03-21T06:20:39.867Z,90.34
2023-03-21T06:21:39.850Z,89.83
2023-03-21T06:22:39.858Z,89.42
2023-03-21T06:23:39.829Z,89.72
2023-03-21T06:24:39.835Z,89.42
2023-03-21T06:25:40.096Z,89.42
2023-03-21T06:26:39.800Z,89.42
2023-03-21T06:27:39.783Z,88.59
2023-03-21T06:28:39.781Z,89.01
2023-03-21T06:29:39.776Z,89.21
2023-03-21T06:30:39.765Z,89.11
2023-03-21T06:31:39.936Z,89.42
2023-03-21T06:32:39.742Z,89.93
2023-03-21T06:33:39.726Z,89.31
2023-03-21T06:34:39.728Z,89.42
2023-03-21T06:35:39.931Z,89.31
2023-03-21T06:36:39.693Z,88.64
2023-03-21T06:37:39.697Z,88.74
2023-03-21T06:38:39.665Z,89.76
2023-03-21T06:39:39.675Z,90.18
2023-03-21T06:40:39.653Z,89.97
2023-03-21T06:41:39.629Z,90.08
2023-03-21T06:42:39.629Z,90.38
2023-03-21T06:43:39.627Z,90.44
2023-03-21T06:44:39.617Z,90.85
2023-03-21T06:45:39.752Z,91.37
2023-03-21T06:46:39.587Z,91.16
2023-03-21T06:47:39.601Z,89.83
2023-03-21T06:48:39.559Z,88.80
2023-03-21T06:49:39.558Z,89.21
2023-03-21T06:50:39.545Z,89.27
2023-03-21T06:51:39.519Z,89.69
2023-03-21T06:52:39.509Z,90.09
2023-03-21T06:53:39.533Z,89.99
2023-03-21T06:54:39.499Z,89.69
2023-03-21T06:55:39.778Z,89.89
2023-03-21T06:56:39.469Z,90.09
2023-03-21T06:57:39.466Z,90.20
2023-03-21T06:58:39.477Z,89.64
2023-03-21T06:59:39.439Z,89.84
2023-03-21T07:00:39.454Z,90.05
2023-03-21T07:01:39.421Z,90.26
2023-03-21T07:02:39.451Z,90.05
2023-03-21T07:03:39.395Z,90.05
2023-03-21T07:04:39.456Z,89.64
2023-03-21T07:05:39.778Z,88.92
2023-03-21T07:06:39.377Z,89.23
2023-03-21T07:07:39.370Z,88.92
2023-03-21T07:08:39.345Z,88.88
2023-03-21T07:09:39.342Z,88.37
2023-03-21T07:10:39.324Z,88.78
2023-03-21T07:11:39.320Z,88.88
2023-03-21T07:12:39.320Z,88.37
2023-03-21T07:13:39.281Z,88.37
2023-03-21T07:14:39.301Z,87.85
2023-03-21T07:15:39.614Z,87.30
2023-03-21T07:16:39.334Z,87.41
2023-03-21T07:17:39.261Z,87.30
2023-03-21T07:18:39.261Z,86.48
2023-03-21T07:19:39.297Z,86.69
2023-03-21T07:20:39.215Z,86.79
2023-03-21T07:21:39.195Z,87.16
2023-03-21T07:22:39.194Z,87.06
2023-03-21T07:23:39.201Z,87.37
2023-03-21T07:24:39.173Z,86.34
2023-03-21T07:25:39.488Z,87.06
2023-03-21T07:26:39.149Z,86.91
2023-03-21T07:27:40.924Z,86.30
2023-03-21T07:28:39.125Z,85.99
2023-03-21T07:29:39.126Z,85.69
2023-03-21T07:30:39.108Z,83.54
2023-03-21T07:31:39.104Z,83.54
2023-03-21T07:32:39.086Z,84.22
2023-03-21T07:33:39.075Z,84.42
2023-03-21T07:34:39.086Z,83.70
2023-03-21T07:35:39.404Z,82.78
2023-03-21T07:36:39.033Z,80.74
2023-03-21T07:37:39.036Z,80.22
2023-03-21T07:38:39.020Z,79.91
2023-03-21T07:39:39.007Z,80.22
2023-03-21T07:40:39.336Z,80.94
2023-03-21T07:41:38.973Z,81.72
2023-03-21T07:42:38.970Z,81.10
2023-03-21T07:43:39.478Z,80.29
2023-03-21T07:44:38.959Z,79.88
2023-03-21T07:45:39.194Z,78.86
2023-03-21T07:46:38.930Z,79.50
2023-03-21T07:47:38.952Z,80.63
2023-03-21T07:48:38.899Z,79.82
2023-03-21T07:49:38.907Z,80.43
2023-03-21T07:50:38.901Z,81.24
2023-03-21T07:51:38.864Z,82.57
2023-03-21T07:52:38.860Z,83.46
2023-03-21T07:53:38.844Z,82.84
2023-03-21T07:54:38.849Z,81.41
2023-03-21T07:55:39.132Z,82.27
2023-03-21T07:56:38.838Z,81.24
2023-03-21T07:57:38.859Z,80.94
2023-03-21T07:58:38.790Z,81.04
2023-03-21T07:59:38.800Z,80.74
2023-03-21T08:00:38.777Z,82.57
2023-03-21T08:01:38.768Z,82.07
2023-03-21T08:02:38.771Z,83.23
2023-03-21T08:03:38.835Z,82.71
2023-03-21T08:04:38.736Z,82.10
2023-03-21T08:05:39.170Z,84.15
2023-03-21T08:06:38.720Z,83.54
2023-03-21T08:07:38.730Z,83.23
2023-03-21T08:08:38.699Z,83.95
2023-03-21T08:09:38.696Z,84.56
2023-03-21T08:10:38.668Z,85.79
2023-03-21T08:11:38.684Z,85.96
2023-03-21T08:12:38.673Z,85.79
2023-03-21T08:13:38.653Z,86.40
2023-03-21T08:14:38.647Z,84.05
2023-03-21T08:15:38.983Z,84.87
2023-03-21T08:16:38.674Z,86.10
2023-03-21T08:17:38.600Z,85.99
2023-03-21T08:18:38.627Z,86.14
2023-03-21T08:19:38.684Z,86.24
2023-03-21T08:20:38.775Z,87.98
2023-03-21T08:21:38.558Z,87.51
2023-03-21T08:22:38.557Z,88.33
2023-03-21T08:23:38.562Z,88.33
2023-03-21T08:24:38.519Z,88.49
2023-03-21T08:25:38.796Z,88.59
2023-03-21T08:26:38.515Z,90.34
2023-03-21T08:27:38.492Z,91.05
2023-03-21T08:28:38.478Z,90.54
2023-03-21T08:29:38.476Z,90.64
2023-03-21T08:30:38.531Z,90.60
2023-03-21T08:31:38.440Z,89.58
2023-03-21T08:32:38.511Z,89.47
2023-03-21T08:33:38.448Z,88.86
2023-03-21T08:34:38.424Z,88.45
2023-03-21T08:35:41.021Z,89.72
2023-03-21T08:36:38.382Z,90.75
2023-03-21T08:37:38.390Z,89.92
2023-03-21T08:38:38.358Z,90.28
2023-03-21T08:39:38.398Z,90.58
2023-03-21T08:40:38.347Z,90.37
2023-03-21T08:41:38.334Z,90.79
2023-03-21T08:42:38.326Z,90.48
2023-03-21T08:43:38.310Z,91.20
2023-03-21T08:44:38.302Z,90.58
2023-03-21T08:45:38.656Z,90.89
2023-03-21T08:46:38.346Z,90.69
2023-03-21T08:47:38.414Z,91.05
2023-03-21T08:48:38.265Z,90.84
2023-03-21T08:49:38.264Z,90.84
2023-03-21T08:50:38.256Z,90.95
2023-03-21T08:51:38.239Z,90.95
2023-03-21T08:52:38.215Z,90.89
2023-03-21T08:53:38.202Z,91.05
2023-03-21T08:54:38.190Z,91.26
2023-03-21T08:55:38.565Z,91.77
2023-03-21T08:56:38.166Z,91.52
2023-03-21T08:57:38.178Z,91.11
2023-03-21T08:58:38.162Z,90.39
2023-03-21T08:59:38.139Z,90.91
2023-03-21T09:00:38.140Z,90.81
2023-03-21T09:01:38.127Z,91.11
2023-03-21T09:02:38.117Z,91.38
2023-03-21T09:03:38.097Z,90.39
2023-03-21T09:04:38.168Z,89.06
2023-03-21T09:05:38.480Z,90.23
2023-03-21T09:06:38.060Z,91.01
2023-03-21T09:07:38.051Z,90.84
2023-03-21T09:08:38.041Z,91.01
2023-03-21T09:09:38.048Z,90.64
2023-03-21T09:10:38.054Z,91.05
2023-03-21T09:11:38.024Z,91.56
2023-03-21T09:12:38.039Z,91.77
2023-03-21T09:13:38.059Z,91.31
2023-03-21T09:14:37.975Z,90.30
2023-03-21T09:15:38.258Z,90.81
2023-03-21T09:16:37.962Z,91.22
2023-03-21T09:17:37.944Z,91.42
2023-03-21T09:18:37.959Z,91.01
2023-03-21T09:19:37.930Z,91.01
2023-03-21T09:20:37.913Z,90.30
2023-03-21T09:21:37.896Z,90.81
2023-03-21T09:22:38.032Z,91.11
2023-03-21T09:23:37.880Z,91.93
2023-03-21T09:24:37.900Z,92.44
2023-03-21T09:25:38.161Z,91.22
2023-03-21T09:26:37.855Z,91.01
2023-03-21T09:27:37.841Z,91.52
2023-03-21T09:28:37.819Z,91.11
2023-03-21T09:29:37.816Z,90.84
2023-03-21T09:30:37.833Z,90.81
2023-03-21T09:31:37.814Z,91.73
2023-03-21T09:32:37.772Z,90.84
2023-03-21T09:33:37.777Z,91.56
2023-03-21T09:34:37.746Z,92.38
2023-03-21T09:35:38.162Z,92.28
2023-03-21T09:36:37.743Z,92.18
2023-03-21T09:37:37.716Z,92.49
2023-03-21T09:38:37.708Z,91.52
2023-03-21T09:39:37.700Z,91.63
2023-03-21T09:40:37.693Z,91.42
2023-03-21T09:41:37.820Z,91.11
2023-03-21T09:42:37.688Z,91.22
2023-03-21T09:43:37.654Z,91.16
2023-03-21T09:44:37.640Z,91.36
2023-03-21T09:45:38.226Z,91.26
2023-03-21T09:46:37.725Z,91.26
2023-03-21T09:47:37.613Z,91.16
2023-03-21T09:48:44.112Z,91.26
2023-03-21T09:49:37.595Z,91.46
2023-03-21T09:50:37.576Z,92.34
2023-03-21T09:51:37.596Z,91.52
2023-03-21T09:52:37.714Z,91.31
2023-03-21T09:53:37.550Z,92.14
2023-03-21T09:54:37.543Z,91.93
2023-03-21T09:55:37.826Z,91.63
2023-03-21T09:56:37.512Z,91.83
2023-03-21T09:57:37.510Z,91.31
2023-03-21T09:58:37.488Z,91.31
2023-03-21T09:59:37.488Z,91.42
2023-03-21T10:00:37.541Z,91.42
2023-03-21T10:01:37.463Z,92.03
2023-03-21T10:02:37.711Z,92.14
2023-03-21T10:03:37.489Z,91.83
2023-03-21T10:04:37.438Z,91.83
2023-03-21T10:05:37.714Z,91.63
2023-03-21T10:06:37.405Z,91.22
2023-03-21T10:07:37.394Z,92.14
2023-03-21T10:08:37.391Z,91.36
2023-03-21T10:09:37.385Z,90.84
2023-03-21T10:10:37.827Z,91.46
2023-03-21T10:11:37.350Z,91.01
2023-03-21T10:12:37.335Z,91.42
2023-03-21T10:13:37.332Z,91.52
2023-03-21T10:14:37.325Z,90.91
2023-03-21T10:15:37.711Z,91.63
2023-03-21T10:16:37.580Z,91.83
2023-03-21T10:17:37.303Z,91.52
2023-03-21T10:18:37.285Z,91.42
2023-03-21T10:19:37.289Z,91.01
2023-03-21T10:20:37.260Z,91.11
2023-03-21T10:21:59.053Z,90.70
2023-03-21T10:22:37.229Z,91.01
2023-03-21T10:23:37.218Z,91.22
2023-03-21T10:24:37.207Z,90.50
2023-03-21T10:25:37.591Z,90.81
2023-03-21T10:26:37.180Z,91.83
2023-03-21T10:27:37.180Z,91.73
2023-03-21T10:28:52.016Z,91.01
2023-03-21T10:29:37.444Z,91.22
2023-03-21T10:30:37.167Z,91.83
2023-03-21T10:31:37.146Z,92.24
2023-03-21T10:32:37.160Z,91.99
2023-03-21T10:33:37.120Z,91.17
2023-03-21T10:34:37.093Z,91.48
2023-03-21T10:35:37.576Z,92.30
2023-03-21T10:36:37.132Z,92.15
2023-03-21T10:37:37.084Z,90.92
2023-03-21T10:38:37.063Z,91.64
2023-03-21T10:39:37.066Z,91.64
2023-03-21T10:40:37.033Z,91.33
2023-03-21T10:41:37.070Z,91.54
2023-03-21T10:42:37.014Z,91.95
2023-03-21T10:43:37.025Z,91.64
2023-03-21T10:44:36.998Z,91.95
2023-03-21T10:45:37.380Z,92.46
2023-03-21T10:46:37.179Z,92.05
2023-03-21T10:47:37.149Z,91.91
2023-03-21T10:48:37.085Z,91.50
2023-03-21T10:49:56.320Z,90.88
2023-03-21T10:50:36.977Z,89.86
2023-03-21T10:51:36.934Z,91.13
2023-03-21T10:52:36.921Z,91.33
2023-03-21T10:53:36.898Z,91.64
2023-03-21T10:54:36.921Z,91.95
2023-03-21T10:55:37.196Z,91.33
2023-03-21T10:56:36.868Z,90.82
2023-03-21T10:57:36.860Z,91.03
2023-03-21T10:58:36.857Z,90.31
2023-03-21T10:59:36.929Z,90.72
2023-03-21T11:00:36.828Z,89.90
2023-03-21T11:01:36.902Z,91.23
2023-03-21T11:02:36.844Z,91.44
2023-03-21T11:03:36.823Z,90.52
2023-03-21T11:04:36.796Z,90.21
2023-03-21T11:05:37.320Z,89.29
2023-03-21T11:06:36.806Z,89.80
2023-03-21T11:07:36.745Z,89.18
2023-03-21T11:08:36.744Z,89.50
2023-03-21T11:09:36.800Z,90.06
2023-03-21T11:10:36.715Z,88.18
2023-03-21T11:11:36.722Z,87.88
2023-03-21T11:12:36.707Z,87.84
2023-03-21T11:13:36.681Z,87.90
2023-03-21T11:14:36.668Z,87.59
2023-03-21T11:15:36.879Z,87.04
2023-03-21T11:16:38.435Z,87.37
2023-03-21T11:17:36.643Z,84.31
2023-03-21T11:18:36.629Z,84.45
2023-03-21T11:19:36.618Z,83.98
2023-03-21T11:20:36.771Z,84.18
2023-03-21T11:21:36.639Z,86.49
2023-03-21T11:22:36.600Z,84.55
2023-03-21T11:23:36.597Z,84.75
2023-03-21T11:24:36.685Z,84.20
2023-03-21T11:25:37.132Z,82.68
2023-03-21T11:26:36.595Z,81.86
2023-03-21T11:27:36.596Z,83.53
2023-03-21T11:28:36.521Z,83.16
2023-03-21T11:29:36.552Z,85.51
2023-03-21T11:30:36.579Z,85.45
2023-03-21T11:31:36.534Z,87.29
2023-03-21T11:32:36.502Z,85.86
2023-03-21T11:33:36.503Z,86.26
2023-03-21T11:34:36.478Z,86.88
2023-03-21T11:35:37.031Z,86.71
2023-03-21T11:36:36.442Z,85.12
2023-03-21T11:37:36.438Z,87.26
2023-03-21T11:38:36.437Z,87.16
2023-03-21T11:39:36.414Z,86.90
2023-03-21T11:40:36.423Z,87.92
2023-03-21T11:41:36.430Z,86.90
2023-03-21T11:42:36.384Z,87.10
2023-03-21T11:43:36.404Z,87.00
2023-03-21T11:44:36.378Z,87.10
2023-03-21T11:45:36.759Z,87.00
2023-03-21T11:46:36.480Z,86.59
2023-03-21T11:47:36.318Z,87.41
2023-03-21T11:48:36.347Z,87.51
2023-03-21T11:49:36.321Z,86.69
2023-03-21T11:50:36.319Z,87.71
2023-03-21T11:51:36.308Z,85.88
2023-03-21T11:52:36.272Z,86.90
2023-03-21T11:53:36.274Z,86.90
2023-03-21T11:54:36.246Z,86.69
2023-03-21T11:55:36.615Z,87.10
2023-03-21T11:56:36.234Z,87.71
2023-03-21T11:57:36.214Z,86.59
2023-03-21T11:58:36.252Z,87.61
2023-03-21T11:59:36.251Z,86.55
2023-03-21T12:00:36.281Z,86.18
2023-03-21T12:01:36.177Z,86.38
2023-03-21T12:02:36.328Z,86.12
2023-03-21T12:03:47.122Z,86.32
2023-03-21T12:04:36.187Z,87.85
2023-03-21T12:05:36.395Z,88.47
2023-03-21T12:06:36.144Z,86.73
2023-03-21T12:07:36.116Z,86.22
2023-03-21T12:08:36.100Z,86.43
2023-03-21T12:09:36.139Z,87.45
2023-03-21T12:10:36.081Z,87.59
2023-03-21T12:11:36.119Z,87.96
2023-03-21T12:12:39.163Z,88.00
2023-03-21T12:13:36.039Z,87.59
2023-03-21T12:14:36.049Z,88.10
2023-03-21T12:15:36.218Z,87.79
2023-03-21T12:16:36.140Z,87.70
2023-03-21T12:17:35.996Z,88.92
2023-03-21T12:18:35.987Z,89.33
2023-03-21T12:19:35.975Z,90.05
2023-03-21T12:20:35.979Z,90.00
2023-03-21T12:21:35.974Z,89.39
2023-03-21T12:22:35.941Z,87.59
2023-03-21T12:23:35.980Z,88.31
2023-03-21T12:24:35.925Z,89.29
2023-03-21T12:25:36.318Z,88.88
2023-03-21T12:26:35.977Z,88.47
2023-03-21T12:27:35.924Z,87.65
2023-03-21T12:28:35.929Z,87.85
2023-03-21T12:29:35.890Z,88.78
2023-03-21T12:30:35.942Z,88.62
2023-03-21T12:31:35.997Z,88.10
2023-03-21T12:32:35.830Z,88.78
2023-03-21T12:33:35.817Z,88.06
2023-03-21T12:34:35.858Z,87.85
2023-03-21T12:35:35.960Z,89.29
2023-03-21T12:36:35.801Z,87.35
2023-03-21T12:37:35.781Z,88.06
2023-03-21T12:38:35.773Z,87.24
2023-03-21T12:39:35.769Z,88.37
2023-03-21T12:40:35.743Z,88.06
2023-03-21T12:41:35.760Z,89.59
2023-03-21T12:42:35.733Z,89.09
2023-03-21T12:43:35.702Z,88.37
2023-03-21T12:44:35.698Z,87.65
2023-03-21T12:45:46.529Z,88.68
2023-03-21T12:46:35.779Z,87.35
2023-03-21T12:47:35.687Z,87.04
2023-03-21T12:48:35.672Z,87.76
2023-03-21T12:49:35.679Z,88.06
2023-03-21T12:50:35.637Z,86.94
2023-03-21T12:51:35.678Z,87.45
2023-03-21T12:52:35.661Z,87.04